createdAt,value
2022-10-20T00:00:21.413Z,48.98
2022-10-20T00:02:48.293Z,49.26
2022-10-20T00:05:15.259Z,48.31
2022-10-20T00:07:42.133Z,48.71
2022-10-20T00:10:09.490Z,49.16
2022-10-20T00:12:36.829Z,49.99
2022-10-20T00:15:04.346Z,49.64
2022-10-20T00:17:31.191Z,51.01
2022-10-20T00:19:58.626Z,50.74
2022-10-20T00:22:25.486Z,51.63
2022-10-20T00:24:52.657Z,50.84
2022-10-20T00:27:19.485Z,50.66
2022-10-20T00:29:48.587Z,50.05
2022-10-20T00:32:15.949Z,52.99
2022-10-20T00:34:42.765Z,53.25
2022-10-20T00:37:09.668Z,52.45
2022-10-20T00:39:36.554Z,51.80
2022-10-20T00:42:04.492Z,51.53
2022-10-20T00:44:57.244Z,49.69
2022-10-20T00:47:39.236Z,50.36
2022-10-20T00:50:12.022Z,49.00
2022-10-20T00:52:40.333Z,49.52
2022-10-20T00:55:11.851Z,51.97
2022-10-20T00:57:39.326Z,51.17
2022-10-20T01:00:08.948Z,51.91
2022-10-20T01:02:36.467Z,54.35
2022-10-20T01:05:03.676Z,55.11
2022-10-20T01:07:30.668Z,53.85
2022-10-20T01:09:57.677Z,54.39
2022-10-20T01:12:39.459Z,55.33
2022-10-20T01:15:12.588Z,55.75
2022-10-20T01:17:59.616Z,56.90
2022-10-20T01:20:52.837Z,56.67
2022-10-20T01:23:43.929Z,57.23
2022-10-20T01:26:32.188Z,57.60
2022-10-20T01:29:13.261Z,57.17
2022-10-20T01:31:40.063Z,55.51
2022-10-20T01:34:27.035Z,55.60
2022-10-20T01:36:53.813Z,55.67
2022-10-20T01:39:36.069Z,54.71
2022-10-20T01:42:14.144Z,53.57
2022-10-20T01:44:43.268Z,52.83
2022-10-20T01:47:12.078Z,54.05
2022-10-20T01:49:43.688Z,53.32
2022-10-20T01:52:11.879Z,52.98
2022-10-20T01:54:39.484Z,52.75
2022-10-20T01:57:18.609Z,52.99
2022-10-20T02:00:05.163Z,54.63
2022-10-20T02:03:14.758Z,55.59
2022-10-20T02:05:53.789Z,55.49
2022-10-20T02:08:31.565Z,57.18
2022-10-20T02:11:02.965Z,57.56
2022-10-20T02:13:31.402Z,57.96
2022-10-20T02:16:03.021Z,58.41
2022-10-20T02:18:38.976Z,58.68
2022-10-20T02:21:07.548Z,58.67
2022-10-20T02:23:37.883Z,58.71
2022-10-20T02:26:09.240Z,59.44
2022-10-20T02:28:39.049Z,61.69
2022-10-20T02:31:06.238Z,62.50
2022-10-20T02:33:35.215Z,64.43
2022-10-20T02:36:05.945Z,63.83
2022-10-20T02:38:32.849Z,63.74
2022-10-20T02:40:59.774Z,63.85
2022-10-20T02:43:26.654Z,63.15
2022-10-20T02:45:53.529Z,63.04
2022-10-20T02:48:20.385Z,62.72
2022-10-20T02:50:47.231Z,59.83
2022-10-20T02:53:14.054Z,58.81
2022-10-20T02:55:42.605Z,59.49
2022-10-20T02:58:10.129Z,59.98
2022-10-20T03:00:37.182Z,61.41
2022-10-20T03:03:04.107Z,60.81
2022-10-20T03:05:30.978Z,60.94
2022-10-20T03:07:57.865Z,61.73
2022-10-20T03:10:24.708Z,62.59
2022-10-20T03:12:51.585Z,61.11
2022-10-20T03:15:18.434Z,59.21
2022-10-20T03:17:45.249Z,59.56
2022-10-20T03:20:12.216Z,59.71
2022-10-20T03:22:39.055Z,58.57
2022-10-20T03:25:06.113Z,57.78
2022-10-20T03:27:33.057Z,57.52
2022-10-20T03:30:00.155Z,58.60
2022-10-20T03:32:27.061Z,60.27
2022-10-20T03:34:53.899Z,59.22
2022-10-20T03:37:20.917Z,60.09
2022-10-20T03:39:47.735Z,59.78
2022-10-20T03:42:15.263Z,62.11
2022-10-20T03:44:45.024Z,60.30
2022-10-20T03:47:13.405Z,58.08
2022-10-20T03:49:40.693Z,59.17
2022-10-20T03:52:07.713Z,59.55
2022-10-20T03:54:36.063Z,59.30
2022-10-20T03:57:06.877Z,60.38
2022-10-20T03:59:34.860Z,63.31
2022-10-20T04:02:01.956Z,61.91
2022-10-20T04:04:29.060Z,63.21
2022-10-20T04:06:55.907Z,61.53
2022-10-20T04:09:22.735Z,60.57
2022-10-20T04:11:49.663Z,59.46
2022-10-20T04:14:16.503Z,62.85
2022-10-20T04:16:43.396Z,62.58
2022-10-20T04:19:10.315Z,61.37
2022-10-20T04:21:37.212Z,60.95
2022-10-20T04:24:05.365Z,61.54
2022-10-20T04:26:32.407Z,64.36
2022-10-20T04:28:59.294Z,65.53
2022-10-20T04:31:26.176Z,64.51
2022-10-20T04:33:53.053Z,63.45
2022-10-20T04:36:19.958Z,62.14
2022-10-20T04:38:46.798Z,62.27
2022-10-20T04:41:13.634Z,62.62
2022-10-20T04:43:40.571Z,62.97
2022-10-20T04:46:08.699Z,64.98
2022-10-20T04:48:37.234Z,63.80
2022-10-20T04:51:09.510Z,62.65
2022-10-20T04:53:37.081Z,63.58
2022-10-20T04:56:05.604Z,62.96
2022-10-20T04:58:33.803Z,62.93
2022-10-20T05:01:08.837Z,61.01
2022-10-20T05:03:36.930Z,59.02
2022-10-20T05:06:33.538Z,57.62
2022-10-20T05:09:05.757Z,56.40
2022-10-20T05:11:36.247Z,55.07
2022-10-20T05:14:03.106Z,54.81
2022-10-20T05:16:30.048Z,53.94
2022-10-20T05:18:58.276Z,53.92
2022-10-20T05:21:27.417Z,54.72
2022-10-20T05:23:59.085Z,54.59
2022-10-20T05:26:28.388Z,53.69
2022-10-20T05:28:55.543Z,53.53
2022-10-20T05:31:23.344Z,53.21
2022-10-20T05:33:52.990Z,52.43
2022-10-20T05:36:23.091Z,52.57
2022-10-20T05:38:52.276Z,51.56
2022-10-20T05:41:21.494Z,51.73
2022-10-20T05:43:53.929Z,49.91
2022-10-20T05:46:21.268Z,49.30
2022-10-20T05:48:48.179Z,48.91
2022-10-20T05:51:17.842Z,49.12
2022-10-20T05:53:47.096Z,49.37
2022-10-20T05:56:17.671Z,50.34
2022-10-20T05:58:44.812Z,48.87
2022-10-20T06:01:24.865Z,48.99
2022-10-20T06:04:00.501Z,48.25
2022-10-20T06:06:29.923Z,48.97
2022-10-20T06:08:59.452Z,49.86
2022-10-20T06:11:27.330Z,48.31
2022-10-20T06:13:54.226Z,49.39
2022-10-20T06:16:24.628Z,49.13
2022-10-20T06:18:52.308Z,48.65
2022-10-20T06:21:20.362Z,48.13
2022-10-20T06:23:47.844Z,48.79
2022-10-20T06:26:20.608Z,48.36
2022-10-20T06:28:50.541Z,48.61
2022-10-20T06:31:20.042Z,49.16
2022-10-20T06:33:47.780Z,48.99
2022-10-20T06:36:15.570Z,49.48
2022-10-20T06:38:43.464Z,48.92
2022-10-20T06:41:13.523Z,49.70
2022-10-20T06:43:40.605Z,49.55
2022-10-20T06:46:12.080Z,48.79
2022-10-20T06:48:39.056Z,49.27
2022-10-20T06:51:10.047Z,48.60
2022-10-20T06:53:38.912Z,48.02
2022-10-20T06:56:13.772Z,49.92
2022-10-20T06:58:42.815Z,48.43
2022-10-20T07:01:15.228Z,48.90
2022-10-20T07:03:43.665Z,48.56
2022-10-20T07:06:14.717Z,47.98
2022-10-20T07:08:41.766Z,47.93
2022-10-20T07:11:20.469Z,48.18
2022-10-20T07:13:49.431Z,47.54
2022-10-20T07:16:20.007Z,47.20
2022-10-20T07:18:47.767Z,46.79
2022-10-20T07:21:17.257Z,47.73
2022-10-20T07:23:44.725Z,48.56
2022-10-20T07:26:16.776Z,48.59
2022-10-20T07:28:46.543Z,48.80
2022-10-20T07:31:22.271Z,48.91
2022-10-20T07:34:07.071Z,48.52
2022-10-20T07:36:38.344Z,47.22
2022-10-20T07:39:06.302Z,46.96
2022-10-20T07:41:34.562Z,46.17
2022-10-20T07:44:01.784Z,45.94
2022-10-20T07:46:28.788Z,45.72
2022-10-20T07:49:02.726Z,44.71
2022-10-20T07:51:38.515Z,46.42
2022-10-20T07:54:07.589Z,44.78
2022-10-20T07:56:38.498Z,44.44
2022-10-20T07:59:06.758Z,44.23
2022-10-20T08:01:34.627Z,40.65
2022-10-20T08:04:01.565Z,40.27
2022-10-20T08:06:28.551Z,41.83
2022-10-20T08:08:55.520Z,41.81
2022-10-20T08:11:22.999Z,41.16
2022-10-20T08:13:49.857Z,42.02
2022-10-20T08:16:17.466Z,41.98
2022-10-20T08:18:49.267Z,42.02
2022-10-20T08:21:19.242Z,41.77
2022-10-20T08:23:47.958Z,40.83
2022-10-20T08:26:20.347Z,40.99
2022-10-20T08:28:48.788Z,40.52
2022-10-20T08:31:16.987Z,40.31
2022-10-20T08:33:45.293Z,40.43
2022-10-20T08:36:15.050Z,39.41
2022-10-20T08:38:43.531Z,40.20
2022-10-20T08:41:23.543Z,41.07
2022-10-20T08:43:54.195Z,40.87
2022-10-20T08:46:27.329Z,39.68
2022-10-20T08:48:54.346Z,38.70
2022-10-20T08:51:24.311Z,38.62
2022-10-20T08:53:55.787Z,38.62
2022-10-20T08:56:25.727Z,39.79
2022-10-20T08:58:53.071Z,40.32
2022-10-20T09:01:21.889Z,38.64
2022-10-20T09:03:56.748Z,38.53
2022-10-20T09:06:23.835Z,37.22
2022-10-20T09:08:51.485Z,37.27
2022-10-20T09:11:28.675Z,36.26
2022-10-20T09:13:55.811Z,36.28
2022-10-20T09:16:40.822Z,34.98
2022-10-20T09:19:21.521Z,33.78
2022-10-20T09:21:53.039Z,34.73
2022-10-20T09:24:22.428Z,34.97
2022-10-20T09:26:58.800Z,35.62
2022-10-20T09:29:38.983Z,34.54
2022-10-20T09:32:52.924Z,33.88
2022-10-20T09:35:34.088Z,34.15
2022-10-20T09:38:17.358Z,34.11
2022-10-20T09:41:10.365Z,33.40
2022-10-20T09:43:58.206Z,31.58
2022-10-20T09:46:40.180Z,30.63
2022-10-20T09:49:08.261Z,29.15
2022-10-20T09:51:35.320Z,29.31
2022-10-20T09:54:08.075Z,28.33
2022-10-20T09:56:43.301Z,30.12
2022-10-20T09:59:22.082Z,29.65
2022-10-20T10:01:59.773Z,29.41
2022-10-20T10:04:34.085Z,29.46
2022-10-20T10:07:01.949Z,28.51
2022-10-20T10:09:38.356Z,28.44
2022-10-20T10:12:26.384Z,29.04
2022-10-20T10:15:20.675Z,29.82
2022-10-20T10:17:47.674Z,28.01
2022-10-20T10:20:14.862Z,27.84
2022-10-20T10:22:42.312Z,28.81
2022-10-20T10:25:27.907Z,28.99
2022-10-20T10:28:08.992Z,29.87
2022-10-20T10:30:38.341Z,30.78
2022-10-20T10:33:25.457Z,29.48
2022-10-20T10:35:52.797Z,28.04
2022-10-20T10:38:20.231Z,26.21
2022-10-20T10:40:47.044Z,28.92
2022-10-20T10:43:32.063Z,29.06
2022-10-20T10:46:26.189Z,28.64
2022-10-20T10:49:05.619Z,27.68
2022-10-20T10:52:09.677Z,26.13
2022-10-20T10:55:04.178Z,25.16
2022-10-20T10:57:37.079Z,23.50
2022-10-20T11:00:16.384Z,23.06
2022-10-20T11:02:58.017Z,24.32
2022-10-20T11:05:41.864Z,22.88
2022-10-20T11:08:11.606Z,22.80
2022-10-20T11:11:07.268Z,21.78
2022-10-20T11:13:40.203Z,21.25
2022-10-20T11:16:44.169Z,22.26
2022-10-20T11:19:22.924Z,23.05
2022-10-20T11:22:10.540Z,23.74
2022-10-20T11:24:49.331Z,21.61
2022-10-20T11:27:27.849Z,21.04
2022-10-20T11:30:22.253Z,23.15
2022-10-20T11:33:21.074Z,25.52
2022-10-20T11:36:03.766Z,25.72
2022-10-20T11:38:35.517Z,24.47
2022-10-20T11:41:17.201Z,25.70
2022-10-20T11:43:55.455Z,27.40
2022-10-20T11:46:32.103Z,28.00
2022-10-20T11:49:01.852Z,28.17
2022-10-20T11:51:30.969Z,27.89
2022-10-20T11:54:03.878Z,29.03
2022-10-20T11:57:03.738Z,29.71
2022-10-20T11:59:55.541Z,30.27
2022-10-20T12:02:25.156Z,30.35
2022-10-20T12:04:54.872Z,29.75
2022-10-20T12:07:46.989Z,29.30
2022-10-20T12:10:33.059Z,29.39
2022-10-20T12:13:05.854Z,29.90
2022-10-20T12:15:33.114Z,30.13
2022-10-20T12:18:05.654Z,29.87
2022-10-20T12:20:38.673Z,28.63
2022-10-20T12:23:05.663Z,28.39
2022-10-20T12:25:38.624Z,29.38
2022-10-20T12:28:20.627Z,31.01
2022-10-20T12:30:55.377Z,30.23
2022-10-20T12:33:49.521Z,29.85
2022-10-20T12:36:19.397Z,29.89
2022-10-20T12:38:53.262Z,30.11
2022-10-20T12:41:35.508Z,30.13
2022-10-20T12:44:07.584Z,30.68
2022-10-20T12:46:51.739Z,30.92
2022-10-20T12:49:29.956Z,31.78
2022-10-20T12:51:59.576Z,32.14
2022-10-20T12:54:34.667Z,31.84
2022-10-20T12:57:06.091Z,30.89
2022-10-20T12:59:32.952Z,31.05
2022-10-20T13:02:08.703Z,31.12
2022-10-20T13:04:58.209Z,31.66
2022-10-20T13:07:46.813Z,32.06
2022-10-20T13:10:31.615Z,31.72
2022-10-20T13:13:01.450Z,31.09
2022-10-20T13:15:39.163Z,31.32
2022-10-20T13:18:12.397Z,31.96
2022-10-20T13:21:02.672Z,32.51
2022-10-20T13:23:41.254Z,32.37
2022-10-20T13:26:26.259Z,31.93
2022-10-20T13:28:55.853Z,31.40
2022-10-20T13:31:31.025Z,30.84
2022-10-20T13:34:16.072Z,30.92
2022-10-20T13:37:21.626Z,31.08
2022-10-20T13:40:18.832Z,32.03
2022-10-20T13:43:23.912Z,31.57
2022-10-20T13:46:11.962Z,30.45
2022-10-20T13:49:13.726Z,30.94
2022-10-20T13:51:49.778Z,31.11
2022-10-20T13:54:26.977Z,32.18
2022-10-20T13:56:54.981Z,32.12
2022-10-20T13:59:25.252Z,32.18
2022-10-20T14:02:01.441Z,32.53
2022-10-20T14:04:36.581Z,32.82
2022-10-20T14:07:10.064Z,32.38
2022-10-20T14:09:39.517Z,32.07
2022-10-20T14:12:26.417Z,31.78
2022-10-20T14:15:01.464Z,32.43
2022-10-20T14:17:28.938Z,32.59
2022-10-20T14:20:18.543Z,32.23
2022-10-20T14:22:46.215Z,31.55
2022-10-20T14:25:13.477Z,30.95
2022-10-20T14:27:40.779Z,30.83
2022-10-20T14:30:08.703Z,31.26
2022-10-20T14:32:40.035Z,32.00
2022-10-20T14:35:29.848Z,31.16
2022-10-20T14:37:59.704Z,32.56
2022-10-20T14:40:33.422Z,33.00
2022-10-20T14:43:04.681Z,32.61
2022-10-20T14:48:01.736Z,32.41
2022-10-20T14:50:31.334Z,32.89
2022-10-20T14:53:15.626Z,32.85
2022-10-20T14:55:42.646Z,33.33
2022-10-20T14:58:33.225Z,33.77
2022-10-20T15:01:20.073Z,33.48
2022-10-20T15:03:47.119Z,33.67
2022-10-20T15:06:18.196Z,34.08
2022-10-20T15:08:57.834Z,34.44
2022-10-20T15:11:28.163Z,34.87
2022-10-20T15:13:59.120Z,35.42
2022-10-20T15:16:44.612Z,36.16
2022-10-20T15:19:28.318Z,36.04
2022-10-20T15:22:01.739Z,34.99
2022-10-20T15:24:29.352Z,35.88
2022-10-20T15:26:57.311Z,35.92
2022-10-20T15:29:24.771Z,36.04
2022-10-20T15:31:52.031Z,35.99
2022-10-20T15:34:18.887Z,36.62
2022-10-20T15:36:48.891Z,36.92
2022-10-20T15:39:18.165Z,37.77
2022-10-20T15:41:45.642Z,37.45
2022-10-20T15:44:22.450Z,37.35
2022-10-20T15:46:53.596Z,37.14
2022-10-20T15:49:21.299Z,37.30
2022-10-20T15:51:50.554Z,37.67
2022-10-20T15:54:20.551Z,38.26
2022-10-20T15:56:47.961Z,38.06
2022-10-20T15:59:14.872Z,38.87
2022-10-20T16:01:41.795Z,39.32
2022-10-20T16:04:19.022Z,38.40
2022-10-20T16:06:45.962Z,38.88
2022-10-20T16:09:15.793Z,38.67
2022-10-20T16:11:43.718Z,39.90
2022-10-20T16:14:10.937Z,39.11
2022-10-20T16:16:37.875Z,38.79
2022-10-20T16:19:05.448Z,38.48
2022-10-20T16:21:34.012Z,39.43
2022-10-20T16:24:01.222Z,40.60
2022-10-20T16:26:28.189Z,41.06
2022-10-20T16:28:55.094Z,40.29
2022-10-20T16:31:21.996Z,42.07
2022-10-20T16:33:49.312Z,43.35
2022-10-20T16:36:18.392Z,43.23
2022-10-20T16:38:45.386Z,43.44
2022-10-20T16:41:14.708Z,43.08
2022-10-20T16:43:45.209Z,41.52
2022-10-20T16:46:13.302Z,40.09
2022-10-20T16:48:42.686Z,41.15
2022-10-20T16:51:12.874Z,42.29
2022-10-20T16:53:39.813Z,43.14
2022-10-20T16:56:07.969Z,42.56
2022-10-20T16:58:35.466Z,42.12
2022-10-20T17:01:12.335Z,41.73
2022-10-20T17:06:18.357Z,41.08
2022-10-20T17:08:45.389Z,41.26
2022-10-20T17:11:18.180Z,40.98
2022-10-20T17:13:45.617Z,41.44
2022-10-20T17:16:20.696Z,41.69
2022-10-20T17:18:49.547Z,40.82
2022-10-20T17:21:16.666Z,40.41
2022-10-20T17:23:44.927Z,41.43
2022-10-20T17:26:15.457Z,41.64
2022-10-20T17:28:42.578Z,42.47
2022-10-20T17:31:13.460Z,44.34
2022-10-20T17:33:41.008Z,44.94
2022-10-20T17:36:08.794Z,44.98
2022-10-20T17:38:36.259Z,44.04
2022-10-20T17:41:04.874Z,44.75
2022-10-20T17:43:32.168Z,43.13
2022-10-20T17:46:01.133Z,42.75
2022-10-20T17:48:28.172Z,42.27
2022-10-20T17:51:04.077Z,42.56
2022-10-20T17:53:33.335Z,41.69
2022-10-20T17:56:04.850Z,42.52
2022-10-20T17:58:33.748Z,42.03
2022-10-20T18:01:24.921Z,41.27
2022-10-20T18:04:15.292Z,41.92
2022-10-20T18:06:43.986Z,41.81
2022-10-20T18:09:17.704Z,41.38
2022-10-20T18:11:47.891Z,41.79
2022-10-20T18:14:15.134Z,42.12
2022-10-20T18:16:42.185Z,41.93
2022-10-20T18:19:14.301Z,42.30
2022-10-20T18:21:41.397Z,43.65
2022-10-20T18:24:11.245Z,44.77
2022-10-20T18:26:38.809Z,45.23
2022-10-20T18:29:08.488Z,45.44
2022-10-20T18:31:37.578Z,45.46
2022-10-20T18:34:11.016Z,45.26
2022-10-20T18:36:41.865Z,45.36
2022-10-20T18:39:12.074Z,46.02
2022-10-20T18:41:41.251Z,46.87
2022-10-20T18:44:12.673Z,46.96
2022-10-20T18:46:40.107Z,46.71
2022-10-20T18:49:08.434Z,47.37
2022-10-20T18:51:36.313Z,46.88
2022-10-20T18:54:04.709Z,46.81
2022-10-20T18:56:31.844Z,46.68
2022-10-20T18:59:01.581Z,47.92
2022-10-20T19:01:31.398Z,47.59
2022-10-20T19:03:59.189Z,46.83
2022-10-20T19:06:27.762Z,47.01
2022-10-20T19:08:57.953Z,46.70
2022-10-20T19:11:28.275Z,47.48
2022-10-20T19:13:56.853Z,47.32
2022-10-20T19:16:26.366Z,46.68
2022-10-20T19:18:55.489Z,49.24
2022-10-20T19:21:24.005Z,48.13
2022-10-20T19:23:53.933Z,47.83
2022-10-20T19:26:36.563Z,47.62
2022-10-20T19:29:10.129Z,47.60
2022-10-20T19:31:42.899Z,49.32
2022-10-20T19:34:16.357Z,49.53
2022-10-20T19:36:46.663Z,48.71
2022-10-20T19:39:20.050Z,47.83
2022-10-20T19:41:47.663Z,49.00
2022-10-20T19:44:17.462Z,48.91
2022-10-20T19:46:46.500Z,47.98
2022-10-20T19:49:13.953Z,48.03
2022-10-20T19:51:41.653Z,47.30
2022-10-20T19:54:08.768Z,48.29
2022-10-20T19:56:36.107Z,48.23
2022-10-20T19:59:04.901Z,48.18
2022-10-20T20:01:32.710Z,47.28
2022-10-20T20:03:59.949Z,47.72
2022-10-20T20:06:28.558Z,47.65
2022-10-20T20:08:59.418Z,47.41
2022-10-20T20:11:29.668Z,46.97
2022-10-20T20:14:02.679Z,47.31
2022-10-20T20:16:29.664Z,48.17
2022-10-20T20:18:57.145Z,47.48
2022-10-20T20:21:24.777Z,46.54
2022-10-20T20:24:00.805Z,46.32
2022-10-20T20:26:30.338Z,47.01
2022-10-20T20:28:58.102Z,46.81
2022-10-20T20:31:25.841Z,46.08
2022-10-20T20:33:53.674Z,47.18
2022-10-20T20:36:21.147Z,47.27
2022-10-20T20:38:48.139Z,46.41
2022-10-20T20:41:17.055Z,45.83
2022-10-20T20:43:47.536Z,45.96
2022-10-20T20:46:17.303Z,45.06
2022-10-20T20:48:44.904Z,45.30
2022-10-20T20:51:12.714Z,44.71
2022-10-20T20:53:40.597Z,44.05
2022-10-20T20:56:09.902Z,44.16
2022-10-20T20:58:37.911Z,44.86
2022-10-20T21:01:11.189Z,44.51
2022-10-20T21:03:39.026Z,44.41
2022-10-20T21:06:12.030Z,45.64
2022-10-20T21:08:41.079Z,46.32
2022-10-20T21:11:09.218Z,46.39
2022-10-20T21:13:37.026Z,48.24
2022-10-20T21:16:12.592Z,49.73
2022-10-20T21:18:41.049Z,49.41
2022-10-20T21:21:16.404Z,50.48
2022-10-20T21:23:43.546Z,50.35
2022-10-20T21:26:11.726Z,49.66
2022-10-20T21:28:39.308Z,48.32
2022-10-20T21:31:07.969Z,48.35
2022-10-20T21:33:36.021Z,48.14
2022-10-20T21:36:05.203Z,46.97
2022-10-20T21:38:36.379Z,45.92
2022-10-20T21:41:05.728Z,46.29
2022-10-20T21:43:33.758Z,44.24
2022-10-20T21:46:23.104Z,43.61
2022-10-20T21:48:51.812Z,42.73
2022-10-20T21:51:22.288Z,42.08
2022-10-20T21:53:49.566Z,41.36
2022-10-20T21:56:16.612Z,41.56
2022-10-20T21:58:43.470Z,43.84
2022-10-20T22:01:11.066Z,43.64
2022-10-20T22:03:38.064Z,43.56
2022-10-20T22:06:06.088Z,43.58
2022-10-20T22:08:38.477Z,44.22
2022-10-20T22:11:07.703Z,42.99
2022-10-20T22:13:34.706Z,42.55
2022-10-20T22:16:02.168Z,42.45
2022-10-20T22:18:29.012Z,42.38
2022-10-20T22:20:55.870Z,42.04
2022-10-20T22:23:22.738Z,42.08
2022-10-20T22:25:53.905Z,41.80
2022-10-20T22:28:20.807Z,41.87
2022-10-20T22:30:47.768Z,41.46
2022-10-20T22:33:14.704Z,41.55
2022-10-20T22:35:41.641Z,41.06
2022-10-20T22:38:08.649Z,40.31
2022-10-20T22:40:35.834Z,40.87
2022-10-20T22:43:02.899Z,40.67
2022-10-20T22:45:29.932Z,40.36
2022-10-20T22:47:56.854Z,40.96
2022-10-20T22:50:24.145Z,41.59
2022-10-20T22:52:51.076Z,40.69
2022-10-20T22:55:18.842Z,41.06
2022-10-20T22:57:50.059Z,42.29
2022-10-20T23:00:18.377Z,41.88
2022-10-20T23:02:45.744Z,40.69
2022-10-20T23:05:12.807Z,40.40
2022-10-20T23:07:40.356Z,40.90
2022-10-20T23:10:08.272Z,40.85
2022-10-20T23:12:35.781Z,40.95
2022-10-20T23:15:03.553Z,40.87
2022-10-20T23:17:30.515Z,40.26
2022-10-20T23:19:57.661Z,40.87
2022-10-20T23:22:24.870Z,40.13
2022-10-20T23:24:51.834Z,40.90
2022-10-20T23:27:18.677Z,40.48
2022-10-20T23:29:45.547Z,40.39
2022-10-20T23:32:12.413Z,40.46
2022-10-20T23:34:39.295Z,40.47
2022-10-20T23:37:06.143Z,41.08
2022-10-20T23:39:33.059Z,39.66
2022-10-20T23:42:03.465Z,39.38
2022-10-20T23:44:34.035Z,40.41
2022-10-20T23:47:00.932Z,39.92
2022-10-20T23:49:27.809Z,39.39
2022-10-20T23:51:54.706Z,38.97
2022-10-20T23:54:21.793Z,38.65
2022-10-20T23:56:48.706Z,38.00
2022-10-20T23:59:15.598Z,38.46
